Time;durP1;ratioP1;P1;durP2;ratioP2;P2;SDS_P1;SDS_P2;PMS_P1;PMS_P2;Temp;Humidity;BMP_temperature;BMP_pressure;BME280_temperature;BME280_humidity;BME280_pressure;Samples;Min_cycle;Max_cycle;Signal;HPM_P1;HPM_P2
2022/09/21 00:01:50;;;;;;;6.00;4.50;;;7.50;99.90;;;;;;5138786;27;20176;-44
2022/09/21 00:04:15;;;;;;;8.10;5.63;;;7.40;99.90;;;;;;5137985;27;20175;-46
2022/09/21 00:06:41;;;;;;;9.27;5.77;;;7.30;99.90;;;;;;5138717;27;20328;-42
2022/09/21 00:09:08;;;;;;;8.50;5.70;;;7.30;99.90;;;;;;5138990;27;20254;-44
2022/09/21 00:11:34;;;;;;;6.00;5.40;;;7.20;99.90;;;;;;5139377;27;20172;-44
2022/09/21 00:14:06;;;;;;;7.90;6.30;;;7.10;99.90;;;;;;5139843;27;20671;-44
2022/09/21 00:16:31;;;;;;;5.90;4.93;;;7.10;99.90;;;;;;5138415;27;20560;-46
2022/09/21 00:18:58;;;;;;;7.00;5.83;;;7.00;99.90;;;;;;5139144;27;20838;-45
2022/09/21 00:21:23;;;;;;;6.53;5.43;;;7.00;99.90;;;;;;5139239;27;20912;-46
2022/09/21 00:23:49;;;;;;;6.93;5.27;;;6.90;99.90;;;;;;5138735;27;20468;-44
2022/09/21 00:26:18;;;;;;;7.20;5.43;;;6.90;99.90;;;;;;5138777;27;20263;-47
2022/09/21 00:28:44;;;;;;;6.00;4.77;;;6.80;99.90;;;;;;5137865;27;20428;-44
2022/09/21 00:31:13;;;;;;;10.20;6.20;;;6.80;99.90;;;;;;5138550;27;20425;-45
2022/09/21 00:33:40;;;;;;;5.57;4.97;;;6.70;99.90;;;;;;5137141;27;20409;-49
2022/09/21 00:36:07;;;;;;;10.10;6.13;;;6.70;99.90;;;;;;5138730;27;20773;-45
2022/09/21 00:38:34;;;;;;;8.90;5.90;;;6.70;99.90;;;;;;5138778;27;20737;-47
2022/09/21 00:41:00;;;;;;;6.57;5.27;;;6.70;99.90;;;;;;5138599;27;20413;-47
2022/09/21 00:43:26;;;;;;;6.87;5.10;;;6.60;99.90;;;;;;5138569;27;20708;-45
2022/09/21 00:46:00;;;;;;;8.13;6.43;;;6.60;99.90;;;;;;5138694;28;20222;-42
2022/09/21 00:48:26;;;;;;;11.00;7.23;;;6.60;99.90;;;;;;5138652;28;20410;-44
2022/09/21 00:50:53;;;;;;;6.57;5.87;;;6.60;99.90;;;;;;5123721;28;20488;-45
2022/09/21 00:53:19;;;;;;;8.63;6.40;;;6.50;99.90;;;;;;5099298;28;20402;-46
2022/09/21 00:55:49;;;;;;;8.83;6.40;;;6.50;99.90;;;;;;5100017;28;20795;-45
2022/09/21 00:58:19;;;;;;;6.73;6.10;;;6.50;99.90;;;;;;5100043;28;20164;-42
2022/09/21 01:00:45;;;;;;;6.07;5.47;;;6.50;99.90;;;;;;5099701;28;21881;-44
2022/09/21 01:03:12;;;;;;;6.57;5.27;;;6.50;99.90;;;;;;5117560;28;20508;-45
2022/09/21 01:05:37;;;;;;;6.70;5.60;;;6.40;99.90;;;;;;5117901;28;20203;-45
2022/09/21 01:08:05;;;;;;;9.00;6.10;;;6.40;99.90;;;;;;5116864;28;20475;-45
2022/09/21 01:10:42;;;;;;;7.83;6.43;;;6.40;99.90;;;;;;5099691;28;20187;-44
2022/09/21 01:13:32;;;;;;;6.67;5.90;;;6.40;99.90;;;;;;5117218;28;20437;-43
2022/09/21 01:16:08;;;;;;;7.33;6.23;;;6.30;99.90;;;;;;5122096;28;20536;-45
2022/09/21 01:18:46;;;;;;;10.27;6.10;;;6.30;99.90;;;;;;5122442;28;20413;-43
2022/09/21 01:21:18;;;;;;;7.17;6.37;;;6.20;99.90;;;;;;5122272;28;20428;-43
2022/09/21 01:24:08;;;;;;;6.83;6.20;;;6.20;99.90;;;;;;5121749;28;20712;-45
2022/09/21 01:26:54;;;;;;;6.87;6.20;;;6.20;99.90;;;;;;5121842;28;20544;-44
2022/09/21 01:29:33;;;;;;;6.20;5.60;;;6.10;99.90;;;;;;5121841;28;20680;-45
2022/09/21 01:32:05;;;;;;;9.20;6.03;;;6.10;99.90;;;;;;5103653;28;20520;-46
2022/09/21 01:34:35;;;;;;;7.67;5.70;;;6.10;99.90;;;;;;5121633;28;20808;-43
2022/09/21 01:37:06;;;;;;;7.47;6.17;;;6.10;99.90;;;;;;5120873;28;20686;-44
2022/09/21 01:39:33;;;;;;;10.93;6.30;;;6.10;99.90;;;;;;5102264;28;20436;-47
2022/09/21 01:42:01;;;;;;;6.93;6.23;;;6.00;99.90;;;;;;5102507;28;20429;-44
2022/09/21 01:44:29;;;;;;;7.40;5.73;;;6.00;99.90;;;;;;5103064;28;20406;-43
2022/09/21 01:46:56;;;;;;;7.27;6.50;;;6.00;99.90;;;;;;5104059;28;20433;-42
2022/09/21 01:49:29;;;;;;;7.80;6.00;;;5.90;99.90;;;;;;5121111;28;20672;-43
2022/09/21 01:51:59;;;;;;;7.87;6.50;;;5.90;99.90;;;;;;5102626;28;20690;-43
2022/09/21 01:54:33;;;;;;;7.37;5.80;;;5.90;99.90;;;;;;5121111;28;20897;-43
2022/09/21 01:57:06;;;;;;;7.30;6.03;;;5.90;99.90;;;;;;5103606;28;20854;-46
2022/09/21 01:59:37;;;;;;;6.10;5.50;;;5.80;99.90;;;;;;5103050;28;20410;-42
2022/09/21 02:02:10;;;;;;;6.37;5.60;;;5.80;99.90;;;;;;5120988;28;20522;-45
2022/09/21 02:04:36;;;;;;;5.80;5.30;;;5.70;99.90;;;;;;5121573;27;20436;-45
2022/09/21 02:07:02;;;;;;;7.67;5.53;;;5.70;99.90;;;;;;5102638;28;20790;-45
2022/09/21 02:09:28;;;;;;;10.40;6.37;;;5.70;99.90;;;;;;5101990;28;20509;-44
2022/09/21 02:11:53;;;;;;;6.43;5.73;;;5.80;99.90;;;;;;5102511;28;20180;-47
2022/09/21 02:14:21;;;;;;;6.90;5.00;;;5.70;99.90;;;;;;5120245;28;20421;-48
2022/09/21 02:17:39;;;;;;;9.67;6.50;;;5.70;99.90;;;;;;5102411;28;20183;-45
2022/09/21 02:20:16;;;;;;;6.90;5.63;;;5.70;99.90;;;;;;5021572;28;20859;-43
2022/09/21 02:23:11;;;;;;;8.70;6.07;;;5.70;99.90;;;;;;5092204;28;20453;-43
2022/09/21 02:25:52;;;;;;;5.70;5.03;;;5.70;99.90;;;;;;5119974;28;20453;-44
2022/09/21 02:28:39;;;;;;;8.30;6.07;;;5.60;99.90;;;;;;5119445;28;20418;-43
2022/09/21 02:31:16;;;;;;;7.60;5.33;;;5.60;99.90;;;;;;5120699;28;20717;-46
2022/09/21 02:33:52;;;;;;;9.20;5.60;;;5.60;99.90;;;;;;5120438;28;20502;-43
2022/09/21 02:36:25;;;;;;;7.57;5.40;;;5.60;99.90;;;;;;5101642;28;20437;-46
2022/09/21 02:39:04;;;;;;;6.00;5.40;;;5.50;99.90;;;;;;5085282;28;20819;-46
2022/09/21 02:41:37;;;;;;;8.73;6.00;;;5.50;99.90;;;;;;5102129;28;20408;-49
2022/09/21 02:44:10;;;;;;;5.70;5.10;;;5.50;99.90;;;;;;5119827;28;20410;-49
2022/09/21 02:46:47;;;;;;;6.33;5.73;;;5.50;99.90;;;;;;5119910;28;20461;-44
2022/09/21 02:49:43;;;;;;;8.13;5.10;;;5.50;99.90;;;;;;5119150;28;20811;-45
2022/09/21 02:52:14;;;;;;;6.57;5.80;;;5.40;99.90;;;;;;5115828;28;20434;-43
2022/09/21 02:54:42;;;;;;;8.20;5.10;;;5.50;99.90;;;;;;5102291;28;20504;-43
2022/09/21 02:57:11;;;;;;;5.40;4.90;;;5.40;99.90;;;;;;5119364;28;20430;-43
2022/09/21 02:59:37;;;;;;;6.10;5.50;;;5.40;99.90;;;;;;5102303;28;20483;-44
2022/09/21 03:02:04;;;;;;;6.70;5.30;;;5.30;99.90;;;;;;5119003;28;20625;-47
2022/09/21 03:04:30;;;;;;;7.17;5.80;;;5.30;99.90;;;;;;5117523;28;20418;-45
2022/09/21 03:06:56;;;;;;;5.70;5.17;;;5.30;99.90;;;;;;5118169;28;20433;-45
2022/09/21 03:09:23;;;;;;;6.03;5.17;;;5.30;99.90;;;;;;5118409;28;20406;-43
2022/09/21 03:11:51;;;;;;;6.63;4.93;;;5.20;99.90;;;;;;5116388;28;20662;-44
2022/09/21 03:14:18;;;;;;;6.60;5.20;;;5.20;99.90;;;;;;5117417;28;20410;-44
2022/09/21 03:16:43;;;;;;;6.70;5.43;;;5.20;99.90;;;;;;5100390;28;20413;-43
2022/09/21 03:19:10;;;;;;;6.37;4.90;;;5.20;99.90;;;;;;5119883;28;20409;-44
2022/09/21 03:21:36;;;;;;;5.40;4.90;;;5.20;99.90;;;;;;5118082;28;20417;-46
2022/09/21 03:24:02;;;;;;;6.10;4.93;;;5.20;99.90;;;;;;5117660;28;20418;-46
2022/09/21 03:26:28;;;;;;;5.23;4.73;;;5.20;99.90;;;;;;5117982;28;20207;-45
2022/09/21 03:28:54;;;;;;;5.97;4.97;;;5.20;99.90;;;;;;5117793;28;20273;-45
2022/09/21 03:31:20;;;;;;;6.93;5.10;;;5.20;99.90;;;;;;5116775;28;20734;-45
2022/09/21 03:33:45;;;;;;;7.43;5.10;;;5.10;99.90;;;;;;5117651;28;20208;-43
2022/09/21 03:36:11;;;;;;;6.10;4.73;;;5.10;99.90;;;;;;5118038;28;20569;-45
2022/09/21 03:38:37;;;;;;;6.00;5.20;;;5.00;99.90;;;;;;5117250;28;20208;-45
2022/09/21 03:41:03;;;;;;;7.23;5.90;;;5.00;99.90;;;;;;5119243;28;20474;-43
2022/09/21 03:43:29;;;;;;;5.93;5.33;;;5.00;99.90;;;;;;5117882;28;20750;-44
2022/09/21 03:45:54;;;;;;;12.43;5.30;;;5.00;99.90;;;;;;5117369;28;20462;-44
2022/09/21 03:48:21;;;;;;;6.00;4.70;;;5.00;99.90;;;;;;5117145;28;20187;-44
2022/09/21 03:50:46;;;;;;;5.10;4.60;;;5.00;99.90;;;;;;5116515;28;20402;-46
2022/09/21 03:53:12;;;;;;;5.30;4.80;;;5.00;99.90;;;;;;5117053;28;20691;-47
2022/09/21 03:55:38;;;;;;;7.87;5.60;;;5.00;99.90;;;;;;5099151;28;20633;-43
2022/09/21 03:58:04;;;;;;;7.80;5.57;;;5.00;99.90;;;;;;5119184;27;20436;-45
2022/09/21 04:00:30;;;;;;;6.70;5.50;;;4.90;99.90;;;;;;5121327;27;20180;-44
2022/09/21 04:02:55;;;;;;;5.90;5.20;;;4.90;99.90;;;;;;5118127;27;20484;-45
2022/09/21 04:05:21;;;;;;;6.30;5.70;;;4.90;99.90;;;;;;5126448;27;20232;-46
2022/09/21 04:07:47;;;;;;;8.17;5.20;;;4.90;99.90;;;;;;5136243;27;20199;-46
2022/09/21 04:10:16;;;;;;;5.00;4.50;;;4.80;99.90;;;;;;5118479;28;20445;-46
2022/09/21 04:12:43;;;;;;;8.27;5.13;;;4.80;99.90;;;;;;5118522;28;20459;-46
2022/09/21 04:15:18;;;;;;;4.97;4.27;;;4.80;99.90;;;;;;5132644;27;20421;-44
2022/09/21 04:17:44;;;;;;;6.00;4.63;;;4.80;99.90;;;;;;5134420;27;20424;-47
2022/09/21 04:20:11;;;;;;;5.40;4.90;;;4.80;99.90;;;;;;5134840;27;20484;-45
2022/09/21 04:22:38;;;;;;;7.60;5.40;;;4.80;99.90;;;;;;5136506;27;21027;-46
2022/09/21 04:25:08;;;;;;;5.33;4.80;;;4.80;99.90;;;;;;5136797;27;20456;-44
2022/09/21 04:27:34;;;;;;;6.33;4.97;;;4.70;99.90;;;;;;5134880;27;20489;-48
2022/09/21 04:30:00;;;;;;;6.77;5.03;;;4.70;99.90;;;;;;5137371;27;20401;-45
2022/09/21 04:32:25;;;;;;;6.67;5.40;;;4.70;99.90;;;;;;5133995;27;20352;-45
2022/09/21 04:34:51;;;;;;;9.03;5.03;;;4.70;99.90;;;;;;5135973;27;20226;-45
2022/09/21 04:37:17;;;;;;;6.63;5.37;;;4.70;99.90;;;;;;5135579;27;20180;-44
2022/09/21 04:39:43;;;;;;;10.17;5.27;;;4.70;99.90;;;;;;5136762;27;20210;-44
2022/09/21 04:42:09;;;;;;;7.73;6.33;;;4.70;99.90;;;;;;5121420;28;20859;-45
2022/09/21 04:44:35;;;;;;;5.90;5.13;;;4.70;99.90;;;;;;5117765;28;20180;-45
2022/09/21 04:47:00;;;;;;;9.60;6.43;;;4.70;99.90;;;;;;5129531;28;20842;-45
2022/09/21 04:49:26;;;;;;;6.70;5.40;;;4.70;99.90;;;;;;5137663;27;20183;-46
2022/09/21 04:51:52;;;;;;;8.07;6.17;;;4.70;99.90;;;;;;5140841;27;20405;-46
2022/09/21 04:54:18;;;;;;;8.20;5.80;;;4.70;99.90;;;;;;5138107;27;20238;-47
2022/09/21 04:56:43;;;;;;;7.10;5.87;;;4.70;99.90;;;;;;5138476;27;20435;-44
2022/09/21 04:59:09;;;;;;;6.80;5.40;;;4.70;99.90;;;;;;5139148;27;20257;-46
2022/09/21 05:01:35;;;;;;;8.73;6.47;;;4.70;99.90;;;;;;5126428;27;20224;-45
2022/09/21 05:04:01;;;;;;;7.80;5.63;;;4.70;99.90;;;;;;5140908;27;20757;-47
2022/09/21 05:06:32;;;;;;;8.90;6.77;;;4.60;99.90;;;;;;5128139;27;20211;-44
2022/09/21 05:11:42;;;;;;;7.73;5.90;;;4.70;99.90;;;;;;5136481;27;20408;-43
2022/09/21 05:14:08;;;;;;;9.77;5.80;;;4.60;99.90;;;;;;5138618;27;20429;-45
2022/09/21 05:16:34;;;;;;;6.93;6.20;;;4.70;99.90;;;;;;5134112;27;20207;-45
2022/09/21 05:18:59;;;;;;;8.40;6.50;;;4.70;99.90;;;;;;5136681;27;20255;-43
2022/09/21 05:21:25;;;;;;;6.50;5.90;;;4.70;99.90;;;;;;5137127;27;20624;-43
2022/09/21 05:23:51;;;;;;;10.90;7.13;;;4.70;99.90;;;;;;5136957;27;20199;-46
2022/09/21 05:26:17;;;;;;;9.33;7.33;;;4.70;99.90;;;;;;5137998;27;20645;-47
2022/09/21 05:28:43;;;;;;;8.90;6.97;;;4.70;99.90;;;;;;5137504;27;20184;-45
2022/09/21 05:31:36;;;;;;;11.33;7.77;;;4.70;99.90;;;;;;5138236;27;20413;-46
2022/09/21 05:34:27;;;;;;;9.03;7.73;;;4.80;99.90;;;;;;5122826;27;20425;-46
2022/09/21 05:37:09;;;;;;;18.60;6.30;;;4.80;99.90;;;;;;5142877;27;20420;-48
2022/09/21 05:39:35;;;;;;;10.67;7.20;;;4.90;99.90;;;;;;5139517;27;20452;-48
2022/09/21 05:42:01;;;;;;;16.20;11.10;;;6.50;99.90;;;;;;5140087;27;20405;-47
2022/09/21 05:44:27;;;;;;;13.67;10.37;;;7.50;99.90;;;;;;5122957;27;20198;-46
2022/09/21 05:47:03;;;;;;;11.20;9.93;;;8.20;99.90;;;;;;5140404;27;20567;-44
2022/09/21 05:49:31;;;;;;;11.23;10.07;;;8.70;99.90;;;;;;5138085;27;20424;-47
2022/09/21 05:52:10;;;;;;;10.27;8.73;;;8.50;99.90;;;;;;5136360;27;20469;-45
2022/09/21 05:54:54;;;;;;;9.77;8.53;;;8.10;99.90;;;;;;5138883;27;20478;-47
2022/09/21 05:57:35;;;;;;;11.20;8.33;;;7.70;99.90;;;;;;5139580;27;20457;-45
2022/09/21 06:00:13;;;;;;;9.93;8.07;;;7.30;99.90;;;;;;5137774;27;20438;-45
2022/09/21 06:03:09;;;;;;;9.37;7.40;;;7.00;99.90;;;;;;5133254;27;20401;-47
2022/09/21 06:05:35;;;;;;;8.93;7.70;;;6.90;99.90;;;;;;5119507;27;20980;-46
2022/09/21 06:08:00;;;;;;;8.53;7.10;;;6.80;99.90;;;;;;5139442;27;20500;-47
2022/09/21 06:10:29;;;;;;;11.80;8.13;;;6.70;99.90;;;;;;5139921;27;20542;-45
2022/09/21 06:12:55;;;;;;;9.73;8.20;;;6.70;99.90;;;;;;5121272;27;20258;-45
2022/09/21 06:15:21;;;;;;;9.80;7.13;;;6.70;99.90;;;;;;5136918;27;20524;-44
2022/09/21 06:17:46;;;;;;;9.50;7.57;;;6.70;99.90;;;;;;5136760;27;20518;-44
2022/09/21 06:20:12;;;;;;;11.30;8.87;;;6.70;99.90;;;;;;5134665;27;20231;-48
2022/09/21 06:22:37;;;;;;;13.97;9.70;;;6.80;99.90;;;;;;5133508;27;20592;-46
2022/09/21 06:25:03;;;;;;;12.43;8.67;;;6.80;99.90;;;;;;5131863;27;20336;-46
2022/09/21 06:27:29;;;;;;;12.10;8.40;;;7.00;99.90;;;;;;5135687;27;20240;-44
2022/09/21 06:29:55;;;;;;;11.60;7.70;;;7.20;99.90;;;;;;5134813;27;20934;-44
2022/09/21 06:32:20;;;;;;;11.30;8.63;;;7.40;99.90;;;;;;5134330;27;20178;-48
2022/09/21 06:34:46;;;;;;;9.77;8.50;;;7.50;99.90;;;;;;5133416;27;20183;-48
2022/09/21 06:37:11;;;;;;;10.87;8.43;;;7.70;99.80;;;;;;5135499;27;20183;-45
2022/09/21 06:39:37;;;;;;;11.70;8.80;;;8.00;99.70;;;;;;5135982;27;20198;-43
2022/09/21 06:42:02;;;;;;;9.07;8.00;;;8.20;99.50;;;;;;5134599;27;20172;-47
2022/09/21 06:44:29;;;;;;;11.83;8.70;;;8.40;99.30;;;;;;5132344;27;20191;-45
2022/09/21 06:46:55;;;;;;;7.93;7.13;;;8.60;98.90;;;;;;5132404;27;20228;-44
2022/09/21 06:49:20;;;;;;;13.00;8.10;;;8.80;98.50;;;;;;5115982;27;20839;-43
2022/09/21 06:51:49;;;;;;;9.40;7.97;;;9.00;98.30;;;;;;5135127;27;20188;-45
2022/09/21 06:54:15;;;;;;;12.50;8.37;;;9.30;98.10;;;;;;5135895;27;20288;-48
2022/09/21 06:56:42;;;;;;;8.87;7.97;;;9.60;97.30;;;;;;5135955;27;20410;-46
2022/09/21 06:59:08;;;;;;;8.70;7.90;;;9.80;96.90;;;;;;5133576;27;20752;-46
2022/09/21 07:01:33;;;;;;;11.37;8.40;;;10.10;96.10;;;;;;5135126;27;20576;-44
2022/09/21 07:03:59;;;;;;;14.97;7.50;;;10.40;95.90;;;;;;5137672;27;20433;-44
2022/09/21 07:06:25;;;;;;;10.13;7.40;;;10.70;95.10;;;;;;5136238;27;20199;-46
2022/09/21 07:08:52;;;;;;;11.73;8.40;;;11.00;94.60;;;;;;5137167;27;20200;-46
2022/09/21 07:11:18;;;;;;;8.27;7.47;;;11.20;94.20;;;;;;5134755;27;20583;-46
2022/09/21 07:13:44;;;;;;;14.93;8.30;;;11.50;94.40;;;;;;5134269;27;20440;-43
2022/09/21 07:16:11;;;;;;;10.00;8.00;;;12.00;93.70;;;;;;5135914;27;20436;-43
2022/09/21 07:18:38;;;;;;;9.80;7.37;;;12.40;92.90;;;;;;5135777;27;20512;-44
2022/09/21 07:21:06;;;;;;;11.63;6.83;;;12.80;92.40;;;;;;5135463;27;20956;-43
2022/09/21 07:23:32;;;;;;;6.83;6.13;;;13.40;91.90;;;;;;5137189;27;20446;-44
2022/09/21 07:26:08;;;;;;;7.60;5.57;;;14.00;91.40;;;;;;5135675;27;20495;-47
2022/09/21 07:28:34;;;;;;;5.97;4.27;;;14.60;91.30;;;;;;5120366;27;20481;-47
2022/09/21 07:31:26;;;;;;;5.93;4.40;;;15.20;90.10;;;;;;5138125;27;20406;-42
2022/09/21 07:33:55;;;;;;;3.40;3.10;;;15.80;86.70;;;;;;5132540;27;20446;-46
2022/09/21 07:36:21;;;;;;;6.23;3.67;;;16.00;84.00;;;;;;5134278;27;20434;-44
2022/09/21 07:38:47;;;;;;;9.07;3.70;;;16.50;82.60;;;;;;5135728;27;20453;-47
2022/09/21 07:41:13;;;;;;;4.10;3.30;;;16.60;81.90;;;;;;5135138;27;20598;-45
2022/09/21 07:43:39;;;;;;;5.33;3.30;;;17.10;79.80;;;;;;5134525;27;20172;-43
2022/09/21 07:46:05;;;;;;;3.63;2.77;;;17.60;77.50;;;;;;5135080;27;20493;-46
2022/09/21 07:48:31;;;;;;;5.00;2.93;;;18.10;76.80;;;;;;5136442;27;20657;-45
2022/09/21 07:51:04;;;;;;;7.23;3.30;;;18.50;73.30;;;;;;5137385;27;20398;-43
2022/09/21 07:53:33;;;;;;;6.73;2.60;;;19.00;74.10;;;;;;5137165;27;20211;-44
2022/09/21 07:56:10;;;;;;;6.07;3.40;;;19.50;72.00;;;;;;5136883;27;20498;-43
2022/09/21 08:01:21;;;;;;;5.70;3.03;;;20.00;66.50;;;;;;5134779;27;20460;-47
2022/09/21 08:03:51;;;;;;;5.53;3.33;;;20.40;63.10;;;;;;5135431;27;20423;-44
2022/09/21 08:06:18;;;;;;;5.33;3.00;;;20.90;59.90;;;;;;5134492;27;20973;-45
2022/09/21 08:08:46;;;;;;;5.93;3.17;;;21.40;59.40;;;;;;5116773;27;20420;-47
2022/09/21 08:11:13;;;;;;;3.50;2.57;;;21.90;57.60;;;;;;5136882;27;20436;-45
2022/09/21 08:13:39;;;;;;;3.10;2.80;;;22.60;57.70;;;;;;5132485;27;20519;-44
2022/09/21 08:16:04;;;;;;;4.30;2.97;;;23.40;55.90;;;;;;5116256;28;20516;-46
2022/09/21 08:18:30;;;;;;;4.07;3.40;;;24.00;54.20;;;;;;5116308;28;20188;-43
2022/09/21 08:20:58;;;;;;;5.80;3.40;;;24.60;52.90;;;;;;5115018;28;20311;-49
2022/09/21 08:23:25;;;;;;;3.60;3.13;;;25.40;50.40;;;;;;5112660;28;20180;-43
2022/09/21 08:25:51;;;;;;;5.43;3.00;;;25.70;46.80;;;;;;5114941;28;20576;-45
2022/09/21 08:28:17;;;;;;;5.70;2.83;;;25.60;45.90;;;;;;5116680;28;20441;-45
2022/09/21 08:30:43;;;;;;;2.63;2.30;;;25.10;45.20;;;;;;5115440;28;20423;-45
2022/09/21 08:33:09;;;;;;;3.50;2.87;;;24.50;45.50;;;;;;5115490;28;20434;-45
2022/09/21 08:35:35;;;;;;;3.87;2.50;;;24.30;45.10;;;;;;5116325;28;20408;-43
2022/09/21 08:38:01;;;;;;;3.50;2.30;;;23.90;45.40;;;;;;5116402;28;20195;-45
2022/09/21 08:40:27;;;;;;;2.83;2.30;;;23.70;46.40;;;;;;5098430;28;20402;-45
2022/09/21 08:43:03;;;;;;;3.20;2.10;;;23.70;47.50;;;;;;5117618;28;20509;-45
2022/09/21 08:45:34;;;;;;;2.53;2.17;;;24.90;45.70;;;;;;5116250;28;20465;-43
2022/09/21 08:48:02;;;;;;;3.03;2.23;;;25.10;44.00;;;;;;5081853;28;20521;-43
2022/09/21 08:50:48;;;;;;;5.00;3.30;;;24.90;44.00;;;;;;5117285;28;20412;-43
2022/09/21 08:53:21;;;;;;;3.50;2.97;;;24.90;43.70;;;;;;5116470;28;20470;-43
2022/09/21 08:55:47;;;;;;;4.57;2.03;;;24.40;44.50;;;;;;5114928;28;20472;-44
2022/09/21 08:58:18;;;;;;;3.27;1.47;;;24.30;44.20;;;;;;5122650;28;20461;-43
2022/09/21 09:00:44;;;;;;;2.97;1.73;;;24.30;44.50;;;;;;5122188;28;20425;-42
2022/09/21 09:03:45;;;;;;;2.47;1.70;;;25.00;44.80;;;;;;5112037;28;20421;-44
2022/09/21 09:06:13;;;;;;;5.90;1.43;;;26.00;44.00;;;;;;5014780;28;20278;-47
2022/09/21 09:08:46;;;;;;;3.90;1.47;;;26.70;42.80;;;;;;5081976;28;20873;-43
2022/09/21 09:11:21;;;;;;;2.37;1.70;;;27.20;41.20;;;;;;5132425;28;20429;-43
2022/09/21 09:13:54;;;;;;;2.47;1.53;;;27.20;40.90;;;;;;5127605;28;20566;-45
2022/09/21 09:16:47;;;;;;;1.70;1.20;;;27.30;40.50;;;;;;5119847;28;20462;-44
2022/09/21 09:19:22;;;;;;;3.30;1.40;;;27.10;39.10;;;;;;5112958;28;20449;-45
2022/09/21 09:21:48;;;;;;;2.10;1.50;;;26.50;39.60;;;;;;5115715;28;20456;-44
2022/09/21 09:24:15;;;;;;;2.70;1.57;;;26.60;40.80;;;;;;5096942;28;20429;-45
2022/09/21 09:27:01;;;;;;;2.23;1.20;;;25.90;39.60;;;;;;5108729;28;20467;-46
2022/09/21 09:30:03;;;;;;;4.83;1.37;;;25.40;40.20;;;;;;5116883;28;20432;-44
2022/09/21 09:33:01;;;;;;;1.40;0.90;;;24.00;41.50;;;;;;5128462;28;20428;-43
2022/09/21 09:35:32;;;;;;;2.13;1.27;;;24.10;43.50;;;;;;5113897;28;20443;-45
2022/09/21 09:38:10;;;;;;;3.10;1.53;;;23.70;42.10;;;;;;5138934;27;20418;-47
2022/09/21 09:40:52;;;;;;;3.00;1.53;;;22.80;41.90;;;;;;5121156;27;20987;-45
2022/09/21 09:43:30;;;;;;;2.60;1.10;;;22.70;44.70;;;;;;5088938;28;20431;-46
2022/09/21 09:46:21;;;;;;;2.30;1.40;;;23.20;44.30;;;;;;5118664;28;20559;-44
2022/09/21 09:49:09;;;;;;;1.87;0.90;;;23.50;43.00;;;;;;5119105;28;20425;-44
2022/09/21 09:51:39;;;;;;;2.50;1.00;;;23.80;41.70;;;;;;5119288;28;20414;-46
2022/09/21 09:54:07;;;;;;;1.53;0.80;;;23.70;40.30;;;;;;5118738;28;20883;-43
2022/09/21 09:56:33;;;;;;;1.83;1.03;;;23.20;40.60;;;;;;5100396;28;20436;-46
2022/09/21 09:59:06;;;;;;;1.93;1.10;;;22.80;41.50;;;;;;5119239;28;20435;-46
2022/09/21 10:01:45;;;;;;;2.07;0.90;;;22.90;42.70;;;;;;5102082;28;20182;-46
2022/09/21 10:04:16;;;;;;;1.93;1.00;;;23.60;40.50;;;;;;5120382;28;20455;-44
2022/09/21 10:06:42;;;;;;;2.70;1.23;;;24.10;41.10;;;;;;5125245;27;20464;-43
2022/09/21 10:09:23;;;;;;;2.17;1.30;;;24.70;40.40;;;;;;5110849;27;20436;-44
2022/09/21 10:11:50;;;;;;;2.70;1.20;;;25.20;40.80;;;;;;5126432;27;20413;-45
2022/09/21 10:14:20;;;;;;;2.80;1.30;;;26.20;40.70;;;;;;5119024;28;20430;-48
2022/09/21 10:16:48;;;;;;;4.03;1.70;;;27.80;39.30;;;;;;5100231;28;20412;-46
2022/09/21 10:19:18;;;;;;;1.70;1.17;;;29.20;37.20;;;;;;5101772;28;20470;-48
2022/09/21 10:21:45;;;;;;;3.40;1.40;;;29.20;36.20;;;;;;5099954;28;20486;-49
2022/09/21 10:24:27;;;;;;;2.03;0.90;;;28.60;36.80;;;;;;5118164;28;20532;-45
2022/09/21 10:27:14;;;;;;;2.57;1.20;;;29.10;37.20;;;;;;5099441;28;20866;-46
2022/09/21 10:29:41;;;;;;;2.20;1.13;;;30.70;36.10;;;;;;5102334;27;20452;-47
2022/09/21 10:32:13;;;;;;;2.43;1.20;;;32.60;34.10;;;;;;5125297;27;20762;-44
2022/09/21 10:34:43;;;;;;;1.70;1.10;;;33.10;31.10;;;;;;5127928;27;20444;-46
2022/09/21 10:37:29;;;;;;;3.37;1.53;;;32.90;31.70;;;;;;5136881;27;20410;-47
2022/09/21 10:39:56;;;;;;;2.07;1.37;;;32.10;31.40;;;;;;5126519;27;20421;-47
2022/09/21 10:42:21;;;;;;;1.83;1.10;;;30.50;32.00;;;;;;5125650;27;20445;-45
2022/09/21 10:44:50;;;;;;;3.17;1.40;;;30.00;33.70;;;;;;5108673;27;20476;-46
2022/09/21 10:47:40;;;;;;;1.77;1.10;;;30.90;33.90;;;;;;5118881;27;20545;-44
2022/09/21 10:50:22;;;;;;;1.87;1.30;;;32.40;33.30;;;;;;5137104;27;20558;-45
2022/09/21 10:52:48;;;;;;;2.70;1.40;;;34.20;30.70;;;;;;5134360;27;20444;-45
2022/09/21 10:55:16;;;;;;;2.37;1.67;;;34.40;30.00;;;;;;5125520;27;20485;-43
2022/09/21 10:57:43;;;;;;;2.30;1.30;;;34.10;30.70;;;;;;5115870;28;20430;-47
2022/09/21 11:00:34;;;;;;;2.60;1.30;;;34.90;30.60;;;;;;5117531;28;20679;-44
2022/09/21 11:03:02;;;;;;;1.60;1.03;;;34.90;29.60;;;;;;5116482;28;20380;-47
2022/09/21 11:05:37;;;;;;;3.43;1.50;;;33.60;30.00;;;;;;5100612;27;20488;-48
2022/09/21 11:08:20;;;;;;;2.80;1.43;;;33.00;30.40;;;;;;5106430;27;20702;-44
2022/09/21 11:11:08;;;;;;;2.30;1.23;;;32.50;30.90;;;;;;5126648;27;20402;-46
2022/09/21 11:13:55;;;;;;;2.23;1.40;;;31.90;31.60;;;;;;5109072;27;20796;-49
2022/09/21 11:16:25;;;;;;;3.67;1.20;;;31.70;31.20;;;;;;5128775;27;20406;-45
2022/09/21 11:19:00;;;;;;;2.37;1.20;;;30.70;32.40;;;;;;5125664;27;20414;-49
2022/09/21 11:21:45;;;;;;;3.10;1.40;;;31.40;32.80;;;;;;5125326;27;20416;-46
2022/09/21 11:24:29;;;;;;;2.20;1.53;;;32.70;32.50;;;;;;5127867;27;20435;-43
2022/09/21 11:27:06;;;;;;;1.60;1.20;;;31.50;31.30;;;;;;5109310;27;20441;-45
2022/09/21 11:29:44;;;;;;;5.00;1.40;;;29.30;33.30;;;;;;5109831;27;20516;-45
2022/09/21 11:32:38;;;;;;;3.20;1.70;;;27.30;34.80;;;;;;5127101;27;20441;-43
2022/09/21 11:35:24;;;;;;;3.13;1.77;;;25.60;37.00;;;;;;5125384;27;20711;-44
2022/09/21 11:37:54;;;;;;;2.67;1.50;;;24.50;37.60;;;;;;5128273;27;20540;-44
2022/09/21 11:40:31;;;;;;;2.70;1.67;;;24.90;38.80;;;;;;5108850;27;20433;-47
2022/09/21 11:43:29;;;;;;;3.60;2.73;;;27.10;37.50;;;;;;5104848;27;20405;-46
2022/09/21 11:46:32;;;;;;;2.23;2.00;;;29.00;33.60;;;;;;5119969;27;20470;-45
2022/09/21 11:49:19;;;;;;;9.13;7.30;;;30.20;32.40;;;;;;5124421;27;20833;-45
2022/09/21 11:52:04;;;;;;;5.83;1.80;;;30.60;31.70;;;;;;5122387;27;20457;-45
2022/09/21 11:54:41;;;;;;;2.90;1.30;;;30.90;31.50;;;;;;5104270;27;20464;-46
2022/09/21 11:57:17;;;;;;;1.80;1.30;;;31.50;32.30;;;;;;5106080;27;20440;-46
2022/09/21 12:00:01;;;;;;;2.10;1.70;;;32.30;30.70;;;;;;5120178;27;20413;-48
2022/09/21 12:02:39;;;;;;;1.70;1.37;;;32.80;30.90;;;;;;5120358;27;20399;-48
2022/09/21 12:05:28;;;;;;;2.37;1.37;;;34.10;30.60;;;;;;5103952;27;20384;-47
2022/09/21 12:08:12;;;;;;;3.00;1.80;;;35.20;29.10;;;;;;5123074;27;20433;-48
2022/09/21 12:11:00;;;;;;;1.70;1.10;;;34.70;29.30;;;;;;5121611;27;20565;-50
2022/09/21 12:13:36;;;;;;;1.50;1.00;;;35.00;29.90;;;;;;5123391;27;20409;-45
2022/09/21 12:16:29;;;;;;;1.93;1.40;;;36.10;28.60;;;;;;5124221;27;20435;-44
2022/09/21 12:19:12;;;;;;;2.47;1.30;;;36.70;27.20;;;;;;5125034;27;20973;-47
2022/09/21 12:21:46;;;;;;;1.53;0.93;;;36.40;27.40;;;;;;5123625;27;20417;-47
2022/09/21 12:24:23;;;;;;;1.90;1.10;;;35.70;27.30;;;;;;5122050;27;20400;-49
2022/09/21 12:26:54;;;;;;;1.63;0.97;;;33.80;27.20;;;;;;5105676;27;20450;-46
2022/09/21 12:29:46;;;;;;;2.20;1.37;;;32.80;28.30;;;;;;5105809;27;20382;-48
2022/09/21 12:32:21;;;;;;;1.70;0.83;;;32.50;28.50;;;;;;5108106;27;20396;-48
2022/09/21 12:34:52;;;;;;;2.43;1.20;;;32.10;28.60;;;;;;5135176;27;20666;-46
2022/09/21 12:37:23;;;;;;;1.67;0.90;;;31.70;29.20;;;;;;5116936;27;20432;-45
2022/09/21 12:40:14;;;;;;;2.27;1.10;;;31.90;29.20;;;;;;5133639;27;20552;-46
2022/09/21 12:42:44;;;;;;;1.70;1.20;;;31.90;29.40;;;;;;5116570;28;20475;-46
2022/09/21 12:45:35;;;;;;;1.37;0.93;;;31.70;29.40;;;;;;5135958;27;20438;-46
2022/09/21 12:48:18;;;;;;;3.07;1.10;;;32.60;29.70;;;;;;5136424;27;20443;-46
2022/09/21 12:50:56;;;;;;;1.30;0.87;;;34.10;28.60;;;;;;5136502;28;20391;-44
2022/09/21 12:53:27;;;;;;;2.57;1.00;;;35.70;28.30;;;;;;5117358;28;20391;-48
2022/09/21 12:56:12;;;;;;;2.43;1.00;;;36.70;26.60;;;;;;5115523;28;20507;-47
2022/09/21 12:59:08;;;;;;;1.70;0.90;;;35.80;26.20;;;;;;5117889;28;20421;-47
2022/09/21 13:01:50;;;;;;;1.70;1.10;;;35.20;27.20;;;;;;5135034;28;20860;-46
2022/09/21 13:04:58;;;;;;;2.43;1.00;;;34.70;27.60;;;;;;5135667;28;20381;-46
2022/09/21 13:07:54;;;;;;;1.80;1.00;;;34.40;27.70;;;;;;5083984;28;20412;-44
2022/09/21 13:10:38;;;;;;;1.53;0.90;;;34.60;27.30;;;;;;5136364;27;20382;-46
2022/09/21 13:13:07;;;;;;;3.27;0.87;;;34.70;27.40;;;;;;5126516;27;20403;-46
2022/09/21 13:15:41;;;;;;;2.33;1.07;;;35.10;27.80;;;;;;5118256;28;20445;-44
2022/09/21 13:18:21;;;;;;;2.93;1.10;;;35.90;26.90;;;;;;5099098;28;20385;-45
2022/09/21 13:20:47;;;;;;;1.73;1.00;;;36.20;26.40;;;;;;5102012;28;20842;-49
2022/09/21 13:23:19;;;;;;;5.03;1.20;;;36.00;26.50;;;;;;5103924;27;20837;-45